sensor_id;sensor_type;location;lat;lon;timestamp;temperature;humidity
5192;DHT22;2615;44.524;11.284;2023-04-15T00:01:57;13.60;43.70
5192;DHT22;2615;44.524;11.284;2023-04-15T00:04:26;13.60;43.80
5192;DHT22;2615;44.524;11.284;2023-04-15T00:06:54;13.60;44.00
5192;DHT22;2615;44.524;11.284;2023-04-15T00:09:24;13.60;44.10
5192;DHT22;2615;44.524;11.284;2023-04-15T00:11:52;13.60;44.80
5192;DHT22;2615;44.524;11.284;2023-04-15T00:14:20;13.60;44.20
5192;DHT22;2615;44.524;11.284;2023-04-15T00:16:48;13.60;44.30
5192;DHT22;2615;44.524;11.284;2023-04-15T00:19:22;13.60;44.40
5192;DHT22;2615;44.524;11.284;2023-04-15T00:21:50;13.60;44.50
5192;DHT22;2615;44.524;11.284;2023-04-15T00:24:18;13.60;44.60
5192;DHT22;2615;44.524;11.284;2023-04-15T00:26:47;13.60;44.70
5192;DHT22;2615;44.524;11.284;2023-04-15T00:29:16;13.50;44.80
5192;DHT22;2615;44.524;11.284;2023-04-15T00:31:44;13.50;44.90
5192;DHT22;2615;44.524;11.284;2023-04-15T00:34:12;13.50;45.10
5192;DHT22;2615;44.524;11.284;2023-04-15T00:36:40;13.50;45.20
5192;DHT22;2615;44.524;11.284;2023-04-15T00:39:08;13.50;45.30
5192;DHT22;2615;44.524;11.284;2023-04-15T00:41:36;13.50;45.40
5192;DHT22;2615;44.524;11.284;2023-04-15T00:44:07;13.50;45.50
5192;DHT22;2615;44.524;11.284;2023-04-15T00:46:37;13.40;45.40
5192;DHT22;2615;44.524;11.284;2023-04-15T00:49:05;13.40;45.60
5192;DHT22;2615;44.524;11.284;2023-04-15T00:51:34;13.40;45.60
5192;DHT22;2615;44.524;11.284;2023-04-15T00:54:03;13.30;45.60
5192;DHT22;2615;44.524;11.284;2023-04-15T00:56:34;13.30;45.70
5192;DHT22;2615;44.524;11.284;2023-04-15T00:59:04;13.30;45.80
5192;DHT22;2615;44.524;11.284;2023-04-15T01:01:35;13.30;45.80
5192;DHT22;2615;44.524;11.284;2023-04-15T01:04:04;13.30;45.90
5192;DHT22;2615;44.524;11.284;2023-04-15T01:06:32;13.30;46.00
5192;DHT22;2615;44.524;11.284;2023-04-15T01:09:01;13.30;46.00
5192;DHT22;2615;44.524;11.284;2023-04-15T01:11:31;13.30;46.00
5192;DHT22;2615;44.524;11.284;2023-04-15T01:14:00;13.20;46.00
5192;DHT22;2615;44.524;11.284;2023-04-15T01:16:28;13.20;46.10
5192;DHT22;2615;44.524;11.284;2023-04-15T01:18:58;13.10;46.10
5192;DHT22;2615;44.524;11.284;2023-04-15T01:21:26;13.10;46.90
5192;DHT22;2615;44.524;11.284;2023-04-15T01:23:55;13.00;46.30
5192;DHT22;2615;44.524;11.284;2023-04-15T01:26:25;12.90;46.40
5192;DHT22;2615;44.524;11.284;2023-04-15T01:28:54;12.80;46.40
5192;DHT22;2615;44.524;11.284;2023-04-15T01:31:22;12.80;46.50
5192;DHT22;2615;44.524;11.284;2023-04-15T01:33:50;12.70;46.50
5192;DHT22;2615;44.524;11.284;2023-04-15T01:36:18;12.70;46.50
5192;DHT22;2615;44.524;11.284;2023-04-15T01:38:46;12.60;46.50
5192;DHT22;2615;44.524;11.284;2023-04-15T01:41:14;12.50;46.40
5192;DHT22;2615;44.524;11.284;2023-04-15T01:43:44;12.50;46.60
5192;DHT22;2615;44.524;11.284;2023-04-15T01:46:12;12.40;46.50
5192;DHT22;2615;44.524;11.284;2023-04-15T01:48:40;12.40;46.70
5192;DHT22;2615;44.524;11.284;2023-04-15T01:51:08;12.40;46.80
5192;DHT22;2615;44.524;11.284;2023-04-15T01:53:37;12.30;46.80
5192;DHT22;2615;44.524;11.284;2023-04-15T01:56:05;12.30;46.90
5192;DHT22;2615;44.524;11.284;2023-04-15T01:58:34;12.20;47.00
5192;DHT22;2615;44.524;11.284;2023-04-15T02:01:03;12.30;47.20
5192;DHT22;2615;44.524;11.284;2023-04-15T02:03:32;12.20;47.30
5192;DHT22;2615;44.524;11.284;2023-04-15T02:06:00;12.20;47.50
5192;DHT22;2615;44.524;11.284;2023-04-15T02:08:30;12.10;47.60
5192;DHT22;2615;44.524;11.284;2023-04-15T02:10:58;12.10;47.60
5192;DHT22;2615;44.524;11.284;2023-04-15T02:13:26;12.10;47.70
5192;DHT22;2615;44.524;11.284;2023-04-15T02:15:56;12.10;47.90
5192;DHT22;2615;44.524;11.284;2023-04-15T02:18:26;12.10;48.00
5192;DHT22;2615;44.524;11.284;2023-04-15T02:20:54;12.10;48.10
5192;DHT22;2615;44.524;11.284;2023-04-15T02:23:24;12.10;48.20
5192;DHT22;2615;44.524;11.284;2023-04-15T02:25:52;12.10;48.20
5192;DHT22;2615;44.524;11.284;2023-04-15T02:28:20;12.10;48.30
5192;DHT22;2615;44.524;11.284;2023-04-15T02:30:48;12.10;48.40
5192;DHT22;2615;44.524;11.284;2023-04-15T02:33:20;12.10;48.50
5192;DHT22;2615;44.524;11.284;2023-04-15T02:35:49;12.10;48.70
5192;DHT22;2615;44.524;11.284;2023-04-15T02:38:18;12.10;48.80
5192;DHT22;2615;44.524;11.284;2023-04-15T02:40:46;12.10;48.90
5192;DHT22;2615;44.524;11.284;2023-04-15T02:43:16;12.10;49.10
5192;DHT22;2615;44.524;11.284;2023-04-15T02:45:46;12.10;49.20
5192;DHT22;2615;44.524;11.284;2023-04-15T02:48:15;12.10;49.30
5192;DHT22;2615;44.524;11.284;2023-04-15T02:50:45;12.10;49.60
5192;DHT22;2615;44.524;11.284;2023-04-15T02:53:15;12.10;49.70
5192;DHT22;2615;44.524;11.284;2023-04-15T02:55:43;12.20;50.00
5192;DHT22;2615;44.524;11.284;2023-04-15T02:58:11;12.20;50.10
5192;DHT22;2615;44.524;11.284;2023-04-15T03:00:40;12.30;50.30
5192;DHT22;2615;44.524;11.284;2023-04-15T03:03:08;12.40;50.50
5192;DHT22;2615;44.524;11.284;2023-04-15T03:05:36;12.40;50.50
5192;DHT22;2615;44.524;11.284;2023-04-15T03:08:05;12.50;50.70
5192;DHT22;2615;44.524;11.284;2023-04-15T03:10:35;12.50;50.70
5192;DHT22;2615;44.524;11.284;2023-04-15T03:13:03;12.60;50.80
5192;DHT22;2615;44.524;11.284;2023-04-15T03:15:32;12.60;50.80
5192;DHT22;2615;44.524;11.284;2023-04-15T03:18:00;12.60;50.90
5192;DHT22;2615;44.524;11.284;2023-04-15T03:20:28;12.70;51.00
5192;DHT22;2615;44.524;11.284;2023-04-15T03:22:56;12.70;51.00
5192;DHT22;2615;44.524;11.284;2023-04-15T03:25:24;12.70;51.00
5192;DHT22;2615;44.524;11.284;2023-04-15T03:27:54;12.70;51.00
5192;DHT22;2615;44.524;11.284;2023-04-15T03:30:22;12.80;51.10
5192;DHT22;2615;44.524;11.284;2023-04-15T03:32:50;12.80;51.10
5192;DHT22;2615;44.524;11.284;2023-04-15T03:35:18;12.80;51.10
5192;DHT22;2615;44.524;11.284;2023-04-15T03:37:46;12.80;51.20
5192;DHT22;2615;44.524;11.284;2023-04-15T03:40:15;12.80;51.20
5192;DHT22;2615;44.524;11.284;2023-04-15T03:42:43;12.80;51.20
5192;DHT22;2615;44.524;11.284;2023-04-15T03:45:12;12.90;51.30
5192;DHT22;2615;44.524;11.284;2023-04-15T03:47:40;12.90;51.40
5192;DHT22;2615;44.524;11.284;2023-04-15T03:50:09;12.90;51.40
5192;DHT22;2615;44.524;11.284;2023-04-15T03:52:37;12.90;52.00
5192;DHT22;2615;44.524;11.284;2023-04-15T03:55:06;12.90;51.50
5192;DHT22;2615;44.524;11.284;2023-04-15T03:57:35;12.90;51.50
5192;DHT22;2615;44.524;11.284;2023-04-15T04:00:06;12.80;51.40
5192;DHT22;2615;44.524;11.284;2023-04-15T04:02:36;12.90;51.50
5192;DHT22;2615;44.524;11.284;2023-04-15T04:05:05;12.90;51.50
5192;DHT22;2615;44.524;11.284;2023-04-15T04:07:33;12.90;51.50
5192;DHT22;2615;44.524;11.284;2023-04-15T04:10:02;12.90;51.60
5192;DHT22;2615;44.524;11.284;2023-04-15T04:12:30;12.90;51.60
5192;DHT22;2615;44.524;11.284;2023-04-15T04:14:58;12.90;51.60
5192;DHT22;2615;44.524;11.284;2023-04-15T04:17:26;12.90;51.60
5192;DHT22;2615;44.524;11.284;2023-04-15T04:19:56;12.80;51.50
5192;DHT22;2615;44.524;11.284;2023-04-15T04:22:25;12.90;51.60
5192;DHT22;2615;44.524;11.284;2023-04-15T04:24:53;12.90;51.60
5192;DHT22;2615;44.524;11.284;2023-04-15T04:27:21;12.90;51.60
5192;DHT22;2615;44.524;11.284;2023-04-15T04:29:49;12.90;51.60
5192;DHT22;2615;44.524;11.284;2023-04-15T04:32:17;12.80;51.60
5192;DHT22;2615;44.524;11.284;2023-04-15T04:34:45;12.80;51.50
5192;DHT22;2615;44.524;11.284;2023-04-15T04:37:15;12.80;51.50
5192;DHT22;2615;44.524;11.284;2023-04-15T04:39:43;12.80;51.50
5192;DHT22;2615;44.524;11.284;2023-04-15T04:42:11;12.80;51.50
5192;DHT22;2615;44.524;11.284;2023-04-15T04:44:39;12.80;51.50
5192;DHT22;2615;44.524;11.284;2023-04-15T04:47:07;12.70;51.30
5192;DHT22;2615;44.524;11.284;2023-04-15T04:49:35;12.70;51.30
5192;DHT22;2615;44.524;11.284;2023-04-15T04:52:04;12.70;51.30
5192;DHT22;2615;44.524;11.284;2023-04-15T04:54:34;12.70;51.30
5192;DHT22;2615;44.524;11.284;2023-04-15T04:57:03;12.70;51.30
5192;DHT22;2615;44.524;11.284;2023-04-15T04:59:31;12.70;51.30
5192;DHT22;2615;44.524;11.284;2023-04-15T05:01:59;12.70;51.30
5192;DHT22;2615;44.524;11.284;2023-04-15T05:04:27;12.70;51.30
5192;DHT22;2615;44.524;11.284;2023-04-15T05:06:56;12.70;51.30
5192;DHT22;2615;44.524;11.284;2023-04-15T05:09:25;12.70;51.30
5192;DHT22;2615;44.524;11.284;2023-04-15T05:11:55;12.70;51.30
5192;DHT22;2615;44.524;11.284;2023-04-15T05:14:23;12.70;51.30
5192;DHT22;2615;44.524;11.284;2023-04-15T05:16:51;12.60;51.20
5192;DHT22;2615;44.524;11.284;2023-04-15T05:19:19;12.50;51.20
5192;DHT22;2615;44.524;11.284;2023-04-15T05:21:47;12.50;51.20
5192;DHT22;2615;44.524;11.284;2023-04-15T05:24:15;12.40;51.20
5192;DHT22;2615;44.524;11.284;2023-04-15T05:26:44;12.40;51.20
5192;DHT22;2615;44.524;11.284;2023-04-15T05:29:13;12.30;51.20
5192;DHT22;2615;44.524;11.284;2023-04-15T05:31:41;12.20;51.20
5192;DHT22;2615;44.524;11.284;2023-04-15T05:34:10;12.20;51.30
5192;DHT22;2615;44.524;11.284;2023-04-15T05:36:38;12.10;51.30
5192;DHT22;2615;44.524;11.284;2023-04-15T05:39:06;12.10;51.40
5192;DHT22;2615;44.524;11.284;2023-04-15T05:41:34;12.10;51.50
5192;DHT22;2615;44.524;11.284;2023-04-15T05:44:04;12.10;51.60
5192;DHT22;2615;44.524;11.284;2023-04-15T05:46:33;12.10;51.70
5192;DHT22;2615;44.524;11.284;2023-04-15T05:49:02;12.20;51.90
5192;DHT22;2615;44.524;11.284;2023-04-15T05:51:30;12.20;51.90
5192;DHT22;2615;44.524;11.284;2023-04-15T05:53:58;12.30;51.90
5192;DHT22;2615;44.524;11.284;2023-04-15T05:56:27;12.40;52.00
5192;DHT22;2615;44.524;11.284;2023-04-15T05:58:55;12.50;52.10
5192;DHT22;2615;44.524;11.284;2023-04-15T06:01:23;12.50;51.80
5192;DHT22;2615;44.524;11.284;2023-04-15T06:03:53;12.50;51.70
5192;DHT22;2615;44.524;11.284;2023-04-15T06:06:21;12.60;51.70
5192;DHT22;2615;44.524;11.284;2023-04-15T06:08:50;12.60;51.70
5192;DHT22;2615;44.524;11.284;2023-04-15T06:11:19;12.60;51.80
5192;DHT22;2615;44.524;11.284;2023-04-15T06:13:47;12.70;51.80
5192;DHT22;2615;44.524;11.284;2023-04-15T06:16:15;12.80;51.90
5192;DHT22;2615;44.524;11.284;2023-04-15T06:18:44;12.90;52.00
5192;DHT22;2615;44.524;11.284;2023-04-15T06:21:13;13.00;52.00
5192;DHT22;2615;44.524;11.284;2023-04-15T06:23:41;13.10;52.00
5192;DHT22;2615;44.524;11.284;2023-04-15T06:26:09;13.20;52.00
5192;DHT22;2615;44.524;11.284;2023-04-15T06:28:37;13.40;52.00
5192;DHT22;2615;44.524;11.284;2023-04-15T06:31:06;13.50;52.00
5192;DHT22;2615;44.524;11.284;2023-04-15T06:33:34;13.60;52.00
5192;DHT22;2615;44.524;11.284;2023-04-15T06:36:02;13.60;51.80
5192;DHT22;2615;44.524;11.284;2023-04-15T06:38:31;13.60;51.60
5192;DHT22;2615;44.524;11.284;2023-04-15T06:40:59;13.50;51.50
5192;DHT22;2615;44.524;11.284;2023-04-15T06:43:28;13.60;51.60
5192;DHT22;2615;44.524;11.284;2023-04-15T06:45:56;13.60;51.60
5192;DHT22;2615;44.524;11.284;2023-04-15T06:48:25;13.60;51.60
5192;DHT22;2615;44.524;11.284;2023-04-15T06:50:53;13.60;51.60
5192;DHT22;2615;44.524;11.284;2023-04-15T06:53:21;13.60;51.60
5192;DHT22;2615;44.524;11.284;2023-04-15T06:55:51;13.70;51.60
5192;DHT22;2615;44.524;11.284;2023-04-15T06:58:19;13.70;51.60
5192;DHT22;2615;44.524;11.284;2023-04-15T07:00:47;13.80;51.70
5192;DHT22;2615;44.524;11.284;2023-04-15T07:03:15;13.90;52.30
5192;DHT22;2615;44.524;11.284;2023-04-15T07:05:44;13.90;51.60
5192;DHT22;2615;44.524;11.284;2023-04-15T07:08:12;14.00;51.60
5192;DHT22;2615;44.524;11.284;2023-04-15T07:10:40;14.00;51.50
5192;DHT22;2615;44.524;11.284;2023-04-15T07:13:10;14.10;51.50
5192;DHT22;2615;44.524;11.284;2023-04-15T07:15:38;14.10;51.50
5192;DHT22;2615;44.524;11.284;2023-04-15T07:18:07;14.20;51.50
5192;DHT22;2615;44.524;11.284;2023-04-15T07:20:35;14.30;51.60
5192;DHT22;2615;44.524;11.284;2023-04-15T07:23:03;14.30;51.50
5192;DHT22;2615;44.524;11.284;2023-04-15T07:25:31;14.40;51.40
5192;DHT22;2615;44.524;11.284;2023-04-15T07:28:00;14.50;51.50
5192;DHT22;2615;44.524;11.284;2023-04-15T07:30:29;14.60;51.40
5192;DHT22;2615;44.524;11.284;2023-04-15T07:32:58;14.60;51.30
5192;DHT22;2615;44.524;11.284;2023-04-15T07:35:26;14.70;51.30
5192;DHT22;2615;44.524;11.284;2023-04-15T07:37:55;14.70;52.00
5192;DHT22;2615;44.524;11.284;2023-04-15T07:40:23;14.80;51.40
5192;DHT22;2615;44.524;11.284;2023-04-15T07:42:51;14.80;51.30
5192;DHT22;2615;44.524;11.284;2023-04-15T07:45:19;14.90;51.40
5192;DHT22;2615;44.524;11.284;2023-04-15T07:47:49;14.90;51.30
5192;DHT22;2615;44.524;11.284;2023-04-15T07:50:17;15.00;51.40
5192;DHT22;2615;44.524;11.284;2023-04-15T07:52:46;15.00;51.20
5192;DHT22;2615;44.524;11.284;2023-04-15T07:55:14;15.10;51.30
5192;DHT22;2615;44.524;11.284;2023-04-15T07:57:45;15.20;51.30
5192;DHT22;2615;44.524;11.284;2023-04-15T08:00:14;15.20;51.20
5192;DHT22;2615;44.524;11.284;2023-04-15T08:02:43;15.30;51.20
5192;DHT22;2615;44.524;11.284;2023-04-15T08:05:14;15.30;51.00
5192;DHT22;2615;44.524;11.284;2023-04-15T08:07:42;15.40;50.90
5192;DHT22;2615;44.524;11.284;2023-04-15T08:10:10;15.50;50.90
5192;DHT22;2615;44.524;11.284;2023-04-15T08:12:38;15.50;50.80
5192;DHT22;2615;44.524;11.284;2023-04-15T08:15:07;15.50;50.60
5192;DHT22;2615;44.524;11.284;2023-04-15T08:17:36;15.50;50.70
5192;DHT22;2615;44.524;11.284;2023-04-15T08:20:05;15.60;50.70
5192;DHT22;2615;44.524;11.284;2023-04-15T08:22:34;15.70;50.50
5192;DHT22;2615;44.524;11.284;2023-04-15T08:25:03;15.80;50.40
5192;DHT22;2615;44.524;11.284;2023-04-15T08:27:31;15.80;50.30
5192;DHT22;2615;44.524;11.284;2023-04-15T08:29:59;15.90;50.30
5192;DHT22;2615;44.524;11.284;2023-04-15T08:32:30;16.00;50.50
5192;DHT22;2615;44.524;11.284;2023-04-15T08:34:59;16.20;50.60
5192;DHT22;2615;44.524;11.284;2023-04-15T08:37:27;16.30;50.40
5192;DHT22;2615;44.524;11.284;2023-04-15T08:39:57;16.40;50.20
5192;DHT22;2615;44.524;11.284;2023-04-15T08:42:29;16.50;50.10
5192;DHT22;2615;44.524;11.284;2023-04-15T08:44:59;16.60;50.00
5192;DHT22;2615;44.524;11.284;2023-04-15T08:47:29;16.70;50.00
5192;DHT22;2615;44.524;11.284;2023-04-15T08:49:58;16.80;49.80
5192;DHT22;2615;44.524;11.284;2023-04-15T08:52:26;16.80;49.60
5192;DHT22;2615;44.524;11.284;2023-04-15T08:54:57;16.90;49.80
5192;DHT22;2615;44.524;11.284;2023-04-15T08:57:27;16.90;49.70
5192;DHT22;2615;44.524;11.284;2023-04-15T08:59:56;17.00;49.50
5192;DHT22;2615;44.524;11.284;2023-04-15T09:02:25;17.10;49.50
5192;DHT22;2615;44.524;11.284;2023-04-15T09:04:54;17.10;49.50
5192;DHT22;2615;44.524;11.284;2023-04-15T09:07:22;17.20;49.40
5192;DHT22;2615;44.524;11.284;2023-04-15T09:09:50;17.30;49.50
5192;DHT22;2615;44.524;11.284;2023-04-15T09:12:20;17.40;49.50
5192;DHT22;2615;44.524;11.284;2023-04-15T09:14:48;17.50;49.50
5192;DHT22;2615;44.524;11.284;2023-04-15T09:17:18;17.60;49.50
5192;DHT22;2615;44.524;11.284;2023-04-15T09:19:47;17.70;49.40
5192;DHT22;2615;44.524;11.284;2023-04-15T09:22:15;17.80;49.20
5192;DHT22;2615;44.524;11.284;2023-04-15T09:24:43;17.80;49.00
5192;DHT22;2615;44.524;11.284;2023-04-15T09:27:15;17.90;49.00
5192;DHT22;2615;44.524;11.284;2023-04-15T09:29:49;18.00;49.00
5192;DHT22;2615;44.524;11.284;2023-04-15T09:32:17;18.10;48.80
5192;DHT22;2615;44.524;11.284;2023-04-15T09:34:47;18.30;48.70
5192;DHT22;2615;44.524;11.284;2023-04-15T09:37:15;18.40;48.50
5192;DHT22;2615;44.524;11.284;2023-04-15T09:39:58;18.60;48.50
5192;DHT22;2615;44.524;11.284;2023-04-15T09:42:26;18.80;48.60
5192;DHT22;2615;44.524;11.284;2023-04-15T09:45:07;19.00;48.50
5192;DHT22;2615;44.524;11.284;2023-04-15T09:47:35;19.20;48.40
5192;DHT22;2615;44.524;11.284;2023-04-15T09:50:04;19.40;48.40
5192;DHT22;2615;44.524;11.284;2023-04-15T09:52:32;19.60;48.20
5192;DHT22;2615;44.524;11.284;2023-04-15T09:55:00;19.80;47.90
5192;DHT22;2615;44.524;11.284;2023-04-15T09:57:34;20.00;47.80
5192;DHT22;2615;44.524;11.284;2023-04-15T10:00:05;20.20;47.60
5192;DHT22;2615;44.524;11.284;2023-04-15T10:02:34;20.40;47.50
5192;DHT22;2615;44.524;11.284;2023-04-15T10:05:03;20.60;47.40
5192;DHT22;2615;44.524;11.284;2023-04-15T10:07:32;20.90;47.20
5192;DHT22;2615;44.524;11.284;2023-04-15T10:10:01;21.10;46.90
5192;DHT22;2615;44.524;11.284;2023-04-15T10:12:31;21.40;46.60
5192;DHT22;2615;44.524;11.284;2023-04-15T10:15:04;21.60;46.40
5192;DHT22;2615;44.524;11.284;2023-04-15T10:17:33;21.90;46.20
5192;DHT22;2615;44.524;11.284;2023-04-15T10:20:04;22.10;45.80
5192;DHT22;2615;44.524;11.284;2023-04-15T10:22:34;22.30;45.50
5192;DHT22;2615;44.524;11.284;2023-04-15T10:25:03;22.50;45.40
5192;DHT22;2615;44.524;11.284;2023-04-15T10:27:33;22.80;45.30
5192;DHT22;2615;44.524;11.284;2023-04-15T10:30:01;23.10;44.90
5192;DHT22;2615;44.524;11.284;2023-04-15T10:32:31;23.40;44.60
5192;DHT22;2615;44.524;11.284;2023-04-15T10:35:00;23.60;44.20
5192;DHT22;2615;44.524;11.284;2023-04-15T10:37:34;23.80;43.90
5192;DHT22;2615;44.524;11.284;2023-04-15T10:40:25;24.00;43.50
5192;DHT22;2615;44.524;11.284;2023-04-15T10:42:54;24.10;42.60
5192;DHT22;2615;44.524;11.284;2023-04-15T10:45:25;24.30;42.90
5192;DHT22;2615;44.524;11.284;2023-04-15T10:47:56;24.50;42.70
5192;DHT22;2615;44.524;11.284;2023-04-15T10:50:27;24.70;42.40
5192;DHT22;2615;44.524;11.284;2023-04-15T10:52:56;24.90;42.00
5192;DHT22;2615;44.524;11.284;2023-04-15T10:55:25;25.30;41.60
5192;DHT22;2615;44.524;11.284;2023-04-15T10:57:57;25.60;41.20
5192;DHT22;2615;44.524;11.284;2023-04-15T11:00:28;25.80;40.80
5192;DHT22;2615;44.524;11.284;2023-04-15T11:03:04;25.90;40.50
5192;DHT22;2615;44.524;11.284;2023-04-15T11:05:49;26.20;40.30
5192;DHT22;2615;44.524;11.284;2023-04-15T11:08:17;26.50;39.80
5192;DHT22;2615;44.524;11.284;2023-04-15T11:10:55;26.70;39.70
5192;DHT22;2615;44.524;11.284;2023-04-15T11:13:25;27.00;39.10
5192;DHT22;2615;44.524;11.284;2023-04-15T11:15:56;27.20;38.90
5192;DHT22;2615;44.524;11.284;2023-04-15T11:18:30;27.40;38.40
5192;DHT22;2615;44.524;11.284;2023-04-15T11:21:00;27.60;38.60
5192;DHT22;2615;44.524;11.284;2023-04-15T11:23:34;27.70;37.70
5192;DHT22;2615;44.524;11.284;2023-04-15T11:26:05;28.00;37.30
5192;DHT22;2615;44.524;11.284;2023-04-15T11:28:36;28.10;37.00
5192;DHT22;2615;44.524;11.284;2023-04-15T11:31:06;28.20;36.50
5192;DHT22;2615;44.524;11.284;2023-04-15T11:33:44;28.30;36.00
5192;DHT22;2615;44.524;11.284;2023-04-15T11:36:12;28.50;35.50
5192;DHT22;2615;44.524;11.284;2023-04-15T11:38:46;28.60;35.20
5192;DHT22;2615;44.524;11.284;2023-04-15T11:43:43;28.90;33.90
5192;DHT22;2615;44.524;11.284;2023-04-15T11:46:11;29.10;34.20
5192;DHT22;2615;44.524;11.284;2023-04-15T11:48:42;29.20;33.70
5192;DHT22;2615;44.524;11.284;2023-04-15T11:51:11;29.40;33.40
5192;DHT22;2615;44.524;11.284;2023-04-15T11:53:41;29.70;33.10
5192;DHT22;2615;44.524;11.284;2023-04-15T11:56:10;29.80;32.50
5192;DHT22;2615;44.524;11.284;2023-04-15T11:58:38;29.80;31.90
5192;DHT22;2615;44.524;11.284;2023-04-15T12:01:06;30.10;31.20
5192;DHT22;2615;44.524;11.284;2023-04-15T12:03:40;30.10;31.50
5192;DHT22;2615;44.524;11.284;2023-04-15T12:08:50;30.50;30.40
5192;DHT22;2615;44.524;11.284;2023-04-15T12:11:18;30.70;30.40
5192;DHT22;2615;44.524;11.284;2023-04-15T12:13:48;30.80;30.50
5192;DHT22;2615;44.524;11.284;2023-04-15T12:16:16;30.90;30.10
5192;DHT22;2615;44.524;11.284;2023-04-15T12:18:47;30.90;30.00
5192;DHT22;2615;44.524;11.284;2023-04-15T12:21:20;31.10;29.60
5192;DHT22;2615;44.524;11.284;2023-04-15T12:23:49;31.00;29.80
5192;DHT22;2615;44.524;11.284;2023-04-15T12:26:18;31.20;29.60
5192;DHT22;2615;44.524;11.284;2023-04-15T12:28:53;31.20;29.40
5192;DHT22;2615;44.524;11.284;2023-04-15T12:31:21;30.90;29.30
5192;DHT22;2615;44.524;11.284;2023-04-15T12:33:50;30.50;29.30
5192;DHT22;2615;44.524;11.284;2023-04-15T12:36:21;29.90;29.40
5192;DHT22;2615;44.524;11.284;2023-04-15T12:38:49;29.50;29.60
5192;DHT22;2615;44.524;11.284;2023-04-15T12:41:18;29.00;29.70
5192;DHT22;2615;44.524;11.284;2023-04-15T12:43:47;28.50;29.80
5192;DHT22;2615;44.524;11.284;2023-04-15T12:46:15;27.90;29.90
5192;DHT22;2615;44.524;11.284;2023-04-15T12:48:43;27.40;30.00
5192;DHT22;2615;44.524;11.284;2023-04-15T12:51:13;26.80;30.20
5192;DHT22;2615;44.524;11.284;2023-04-15T12:53:41;26.40;30.50
5192;DHT22;2615;44.524;11.284;2023-04-15T12:56:09;26.00;30.90
5192;DHT22;2615;44.524;11.284;2023-04-15T12:58:37;25.70;31.30
5192;DHT22;2615;44.524;11.284;2023-04-15T13:01:06;25.40;31.50
5192;DHT22;2615;44.524;11.284;2023-04-15T13:03:34;25.10;31.60
5192;DHT22;2615;44.524;11.284;2023-04-15T13:06:02;24.80;31.70
5192;DHT22;2615;44.524;11.284;2023-04-15T13:08:33;24.50;31.90
5192;DHT22;2615;44.524;11.284;2023-04-15T13:11:06;24.30;32.20
5192;DHT22;2615;44.524;11.284;2023-04-15T13:13:34;24.10;32.80
5192;DHT22;2615;44.524;11.284;2023-04-15T13:16:02;23.90;33.10
5192;DHT22;2615;44.524;11.284;2023-04-15T13:18:30;23.70;33.10
5192;DHT22;2615;44.524;11.284;2023-04-15T13:21:01;23.60;33.30
5192;DHT22;2615;44.524;11.284;2023-04-15T13:23:32;23.40;33.40
5192;DHT22;2615;44.524;11.284;2023-04-15T13:26:00;23.30;33.60
5192;DHT22;2615;44.524;11.284;2023-04-15T13:28:28;23.10;33.70
5192;DHT22;2615;44.524;11.284;2023-04-15T13:30:57;23.00;34.00
5192;DHT22;2615;44.524;11.284;2023-04-15T13:33:26;22.90;34.10
5192;DHT22;2615;44.524;11.284;2023-04-15T13:35:54;22.80;34.30
5192;DHT22;2615;44.524;11.284;2023-04-15T13:38:23;22.60;34.50
5192;DHT22;2615;44.524;11.284;2023-04-15T13:40:53;22.40;34.60
5192;DHT22;2615;44.524;11.284;2023-04-15T13:43:21;22.30;34.80
5192;DHT22;2615;44.524;11.284;2023-04-15T13:45:49;22.20;35.00
5192;DHT22;2615;44.524;11.284;2023-04-15T13:48:18;22.10;35.00
5192;DHT22;2615;44.524;11.284;2023-04-15T13:50:46;22.10;35.20
5192;DHT22;2615;44.524;11.284;2023-04-15T13:53:14;22.10;35.40
5192;DHT22;2615;44.524;11.284;2023-04-15T13:55:42;22.00;35.50
5192;DHT22;2615;44.524;11.284;2023-04-15T13:58:12;22.00;35.70
5192;DHT22;2615;44.524;11.284;2023-04-15T14:00:40;22.00;36.40
5192;DHT22;2615;44.524;11.284;2023-04-15T14:03:08;21.90;35.80
5192;DHT22;2615;44.524;11.284;2023-04-15T14:05:36;21.80;35.90
5192;DHT22;2615;44.524;11.284;2023-04-15T14:08:05;21.70;36.00
5192;DHT22;2615;44.524;11.284;2023-04-15T14:10:33;21.60;36.10
5192;DHT22;2615;44.524;11.284;2023-04-15T14:13:01;21.50;36.10
5192;DHT22;2615;44.524;11.284;2023-04-15T14:15:31;21.40;36.10
5192;DHT22;2615;44.524;11.284;2023-04-15T14:17:59;21.30;36.20
5192;DHT22;2615;44.524;11.284;2023-04-15T14:20:27;21.30;36.30
5192;DHT22;2615;44.524;11.284;2023-04-15T14:22:55;21.20;36.40
5192;DHT22;2615;44.524;11.284;2023-04-15T14:25:23;21.20;36.60
5192;DHT22;2615;44.524;11.284;2023-04-15T14:27:59;21.20;36.70
5192;DHT22;2615;44.524;11.284;2023-04-15T14:30:28;21.10;36.70
5192;DHT22;2615;44.524;11.284;2023-04-15T14:32:57;21.10;36.80
5192;DHT22;2615;44.524;11.284;2023-04-15T14:35:26;21.10;36.90
5192;DHT22;2615;44.524;11.284;2023-04-15T14:37:54;21.00;36.90
5192;DHT22;2615;44.524;11.284;2023-04-15T14:40:22;21.00;37.10
5192;DHT22;2615;44.524;11.284;2023-04-15T14:42:51;20.90;37.00
5192;DHT22;2615;44.524;11.284;2023-04-15T14:45:19;20.90;37.20
5192;DHT22;2615;44.524;11.284;2023-04-15T14:47:47;20.90;37.60
5192;DHT22;2615;44.524;11.284;2023-04-15T14:50:17;20.80;37.60
5192;DHT22;2615;44.524;11.284;2023-04-15T14:52:45;20.80;37.70
5192;DHT22;2615;44.524;11.284;2023-04-15T14:55:14;20.70;37.80
5192;DHT22;2615;44.524;11.284;2023-04-15T14:57:42;20.70;38.00
5192;DHT22;2615;44.524;11.284;2023-04-15T15:00:11;20.60;37.90
5192;DHT22;2615;44.524;11.284;2023-04-15T15:02:42;20.60;37.80
5192;DHT22;2615;44.524;11.284;2023-04-15T15:05:14;20.50;37.80
5192;DHT22;2615;44.524;11.284;2023-04-15T15:07:48;20.40;37.90
5192;DHT22;2615;44.524;11.284;2023-04-15T15:10:18;20.40;38.00
5192;DHT22;2615;44.524;11.284;2023-04-15T15:13:15;20.40;38.20
5192;DHT22;2615;44.524;11.284;2023-04-15T15:15:45;20.40;38.30
5192;DHT22;2615;44.524;11.284;2023-04-15T15:18:15;20.30;38.20
5192;DHT22;2615;44.524;11.284;2023-04-15T15:20:45;20.30;38.30
5192;DHT22;2615;44.524;11.284;2023-04-15T15:23:14;20.30;38.20
5192;DHT22;2615;44.524;11.284;2023-04-15T15:25:43;20.30;38.20
5192;DHT22;2615;44.524;11.284;2023-04-15T15:28:12;20.20;38.20
5192;DHT22;2615;44.524;11.284;2023-04-15T15:30:40;20.20;38.20
5192;DHT22;2615;44.524;11.284;2023-04-15T15:33:08;20.20;38.30
5192;DHT22;2615;44.524;11.284;2023-04-15T15:35:36;20.10;38.20
5192;DHT22;2615;44.524;11.284;2023-04-15T15:38:05;20.10;38.30
5192;DHT22;2615;44.524;11.284;2023-04-15T15:40:34;20.10;38.30
5192;DHT22;2615;44.524;11.284;2023-04-15T15:43:02;20.10;38.20
5192;DHT22;2615;44.524;11.284;2023-04-15T15:45:31;20.00;38.30
5192;DHT22;2615;44.524;11.284;2023-04-15T15:48:00;20.00;38.30
5192;DHT22;2615;44.524;11.284;2023-04-15T15:50:28;20.00;38.40
5192;DHT22;2615;44.524;11.284;2023-04-15T15:52:56;19.90;38.50
5192;DHT22;2615;44.524;11.284;2023-04-15T15:55:25;19.90;38.60
5192;DHT22;2615;44.524;11.284;2023-04-15T15:57:59;19.90;38.70
5192;DHT22;2615;44.524;11.284;2023-04-15T16:00:28;19.90;38.70
5192;DHT22;2615;44.524;11.284;2023-04-15T16:02:57;19.90;38.70